Flight Track Log - Related Links

Times and Time Zones

All times are in EDT time to prevent confusion due to time zone crossing. See the ASQ5941 flight status page for this flight to view local times or setup timezone preferences in your user account.

Time Position Orientation Groundspeed Altitude Reporting Facility
EDT Latitude Longitude Course Direction KTS MPH feet Rate Location/Type
Tue 05:23:30 PM 41.4608 -75.6956 330° Northwest 190 219 6,400  Level New Center
Tue 05:24:00 PM 41.4390 -75.9614 304° West  Level FlightAware
Tue 05:24:31 PM 41.5044 -75.7542 315° West 191 220 8,500  Level New Center
Tue 05:25:00 PM 41.4929 -76.0516 315° West  Level FlightAware
Tue 05:25:31 PM 41.5575 -75.8275 314° West 226 260 10,000  Level New Center
Tue 05:26:00 PM 41.5521 -76.1365 312° West  Level FlightAware
Tue 05:26:32 PM 41.5936 -75.9050 302° West 256 295 11,100  Level New Center
Tue 05:27:00 PM 41.6076 -76.2257 307° West  Level FlightAware
Tue 05:27:30 PM 41.6264 -76.0131 292° West 290 334 11,800  Level New Center
Tue 05:28:31 PM 41.6625 -76.1408 291° West 335 386 13,100 1,180 Climbing New Center
Tue 05:29:32 PM 41.6944 -76.2575 290° West 335 386 14,200 1,091 Climbing New Center
Tue 05:30:32 PM 41.7250 -76.3628 291° West 335 386 15,300 1,128 Climbing New Center
Tue 05:31:29 PM 41.7589 -76.4822 291° West 340 391 16,400 1,210 Climbing New Center
Tue 05:32:31 PM 41.7942 -76.6133 290° West 340 391 17,700 984 Climbing New Center
Tue 05:33:31 PM 41.8278 -76.7361 290° West 340 391 18,400 820 Climbing New Center
Tue 05:35:34 PM 41.8953 -76.9817 290° West 357 411 20,200 885 Climbing Cleveland Center
Tue 05:36:34 PM 41.9306 -77.1108 290° West 357 411 21,100 950 Climbing Cleveland Center
Tue 05:37:34 PM 41.9656 -77.2403 290° West 368 423 22,100 950 Climbing Cleveland Center
Tue 05:38:34 PM 42.0006 -77.3725 290° West 368 423 23,000 900 Climbing Cleveland Center
Tue 05:39:34 PM 42.0375 -77.5022 291° West 368 423 23,900 900 Climbing Cleveland Center
Tue 05:40:34 PM 42.0722 -77.6347 289° West 368 423 24,800 850 Climbing Cleveland Center
Tue 05:41:34 PM 42.1069 -77.7703 289° West 373 429 25,600 800 Climbing Cleveland Center
Tue 05:42:34 PM 42.1414 -77.9061 289° West 378 435 26,400 850 Climbing Cleveland Center
Tue 05:43:34 PM 42.1778 -78.0417 290° West 378 435 27,300 800 Climbing Cleveland Center
Tue 05:44:34 PM 42.2142 -78.1778 290° West 378 435 28,000 350 Climbing Cleveland Center
Tue 05:45:34 PM 42.2506 -78.3194 289° West 383 441 28,000  Level Cleveland Center
Tue 05:46:34 PM 42.2886 -78.4669 289° West 397 457 28,000 400 Level Cleveland Center
Tue 05:47:34 PM 42.3289 -78.6172 290° West 417 480 28,800 1,050 Climbing Cleveland Center
Tue 05:48:34 PM 42.3647 -78.7650 288° West 422 486 30,100 1,200 Climbing Cleveland Center
Tue 05:49:34 PM 42.4022 -78.9158 289° West 405 466 31,200 950 Climbing Cleveland Center
Tue 05:50:34 PM 42.4356 -79.0556 288° West 399 459 32,000 400 Climbing Cleveland Center
Tue 05:51:34 PM 42.4750 -79.2067 290° West 416 479 32,000  Level Cleveland Center
Tue 05:52:34 PM 42.4972 -79.3414 283° West 422 486 32,000  Level Cleveland Center
Tue 05:53:34 PM 42.5053 -79.5103 274° West 435 501 32,000  Level Cleveland Center
Tue 05:54:34 PM 42.5131 -79.6819 274° West 449 517 32,000  Level Cleveland Center
Tue 05:55:34 PM 42.5225 -79.8508 274° West 455 524 32,000  Level Cleveland Center
Tue 05:56:34 PM 42.5422 -80.0308 279° West 455 524 32,000  Level Cleveland Center
Tue 05:57:34 PM 42.5719 -80.1856 285° West 438 504 32,000  Level Cleveland Center
Tue 05:58:34 PM 42.6036 -80.3264 287° West 428 493 32,000  Level Cleveland Center
Tue 05:59:34 PM 42.6436 -80.4758 290° West 428 493 32,000  Level Cleveland Center
Tue 06:00:34 PM 42.6875 -80.6228 292° West 423 487 32,000  Level Cleveland Center
Tue 06:01:34 PM 42.7539 -80.7556 304° West 429 494 32,000  Level Cleveland Center
Tue 06:03:20 PM 42.9500 -80.8167 347° North 430 495 32,000  Level Toronto Center
Tue 06:04:20 PM 43.0667 -80.8500 348° North 420 483 32,000  Level Toronto Center
Tue 06:05:20 PM 43.1667 -80.8833 346° North 420 483 32,000  Level Toronto Center
Tue 06:06:20 PM 43.2500 -80.9833 319° Northwest 410 472 32,000  Level Toronto Center
Tue 06:07:20 PM 43.3500 -81.0833 324° Northwest 410 472 32,000  Level Toronto Center
Tue 06:08:20 PM 43.4167 -81.2000 308° West 410 472 32,000  Level Toronto Center
Tue 06:09:20 PM 43.4167 -81.3833 270° West 430 495 32,000  Level Toronto Center
Tue 06:10:20 PM 43.4000 -81.5333 261° West 440 506 32,000  Level Toronto Center
Tue 06:11:20 PM 43.3667 -81.7000 255° West 440 506 32,000  Level Toronto Center
Tue 06:12:20 PM 43.3333 -81.8500 253° West 440 506 32,000  Level Toronto Center
Tue 06:13:19 PM 43.3000 -82.0167 255° West 430 495 32,000  Level Toronto Center
Tue 06:14:19 PM 43.2667 -82.1667 253° West 430 495 32,000  Level Toronto Center
Tue 06:15:19 PM 43.2333 -82.3333 255° West 440 506 32,000  Level Toronto Center
Tue 06:16:19 PM 43.2167 -82.5000 262° West 440 506 32,000  Level Toronto Center
Tue 06:17:20 PM 43.1667 -82.6667 248° West 450 518 32,000  Level Toronto Center
Tue 06:18:20 PM 43.1333 -82.8333 255° West 460 529 32,000  Level Toronto Center
Tue 06:19:19 PM 43.1167 -82.9833 261° West 450 518 32,000  Level Toronto Center
Tue 06:20:19 PM 43.0833 -83.1667 256° West 440 506 32,000  Level Toronto Center
Tue 06:21:46 PM 43.0117 -83.3856 246° West 434 499 32,000  Level Cleveland Center
Tue 06:22:46 PM 42.9436 -83.5244 236° Southwest 440 506 32,000  Level Cleveland Center
Tue 06:23:46 PM 42.9000 -83.6783 249° West 445 512 32,000  Level Cleveland Center
Tue 06:24:47 PM 42.8997 -83.8456 270° West 439 505 32,000  Level Cleveland Center
Tue 06:25:46 PM 42.8969 -84.0156 269° West 439 505 32,000  Level Cleveland Center
Tue 06:26:46 PM 42.8917 -84.1853 268° West 444 511 32,000  Level Cleveland Center
Tue 06:27:46 PM 42.8903 -84.3553 269° West 444 511 32,000  Level Cleveland Center
Tue 06:28:46 PM 42.8867 -84.5281 268° West 449 517 32,000  Level Cleveland Center
Tue 06:30:08 PM 42.8689 -84.7322 263° West 455 524 32,000  Level Chicago Center
Tue 06:31:10 PM 42.8511 -84.9008 262° West 452 520 32,000 -48 Level Chicago Center
Tue 06:32:12 PM 42.8297 -85.1011 262° West 446 513 31,900 -726 Descending Chicago Center
Tue 06:33:14 PM 42.8122 -85.2672 262° West 445 512 30,500 -1,403 Descending Chicago Center
Tue 06:34:16 PM 42.7928 -85.4383 261° West 447 514 29,000 -1,403 Descending Chicago Center
Tue 06:35:18 PM 42.7686 -85.5947 258° West 435 501 27,600 -1,403 Descending Chicago Center
Tue 06:36:20 PM 42.7417 -85.7469 256° West 418 481 26,100 -1,452 Descending Chicago Center
Tue 06:37:22 PM 42.7147 -85.8944 256° West 406 467 24,600 -1,452 Descending Chicago Center
Tue 06:38:24 PM 42.6894 -86.0339 256° West 387 445 23,100 -1,548 Descending Chicago Center
Tue 06:39:26 PM 42.6614 -86.1886 256° West 354 407 21,400 -1,403 Descending Chicago Center
Tue 06:40:28 PM 42.6361 -86.3208 255° West 359 413 20,200 -1,152 Descending Chicago Center
Tue 06:41:31 PM 42.6106 -86.4558 256° West 366 421 19,000 -1,104 Descending Chicago Center
Tue 06:42:33 PM 42.5861 -86.5881 256° West 362 417 17,900 -1,597 Descending Chicago Center
Tue 06:43:35 PM 42.5622 -86.7133 256° West 349 402 15,700 -1,984 Descending Chicago Center
Tue 06:44:37 PM 42.5344 -86.8225 251° West 315 362 13,800 -1,548 Descending Chicago Center
Tue 06:45:39 PM 42.5006 -86.9475 250° West 294 338 12,500 -871 Descending Chicago Center
Tue 06:46:41 PM 42.4697 -87.0536 249° West 300 345 12,000 -919 Descending Chicago Center
Tue 06:47:43 PM 42.4550 -87.1572 259° West 287 330 10,600 -1,403 Descending Chicago Center
Tue 06:48:45 PM 42.4531 -87.2614 269° West 277 319 9,100 -871 Descending Chicago Center
Tue 06:49:47 PM 42.3978 -87.3267 221° Southwest 267 307 8,800 -1,113 Descending Chicago Center
Tue 06:50:49 PM 42.3672 -87.4297 248° West 262 302 6,800 -1,355 Descending Chicago Center
Tue 06:51:51 PM 42.3353 -87.5153 243° Southwest 270 311 6,000 -384 Descending Chicago Center
Tue 06:52:54 PM 42.2644 -87.5142 179° South 259 298 6,000 -384 Level Chicago Center
Tue 06:53:56 PM 42.1917 -87.5067 176° South 264 304 5,200 -532 Descending Chicago Center
Tue 06:54:58 PM 42.1222 -87.5031 178° South 255 293 4,900 -581 Descending Chicago Center
Tue 06:56:00 PM 42.0831 -87.6031 242° Southwest 251 289 4,000 -629 Descending Chicago Center
Tue 06:57:02 PM 42.0525 -87.6828 243° Southwest 245 282 3,600 -387 Descending Chicago Center

Login

Don't have an account? Register now (free) for customized features, flight alerts, and more!